createdAt,value
2023-03-03T00:00:36.883Z,1.33
2023-03-03T00:05:43.252Z,1.52
2023-03-03T00:10:47.564Z,1.33
2023-03-03T00:15:53.142Z,1.30
2023-03-03T00:21:04.673Z,1.38
2023-03-03T00:26:35.053Z,1.70
2023-03-03T00:31:38.806Z,1.20
2023-03-03T00:36:44.138Z,1.75
2023-03-03T00:41:51.356Z,1.50
2023-03-03T00:46:56.678Z,1.55
2023-03-03T00:52:01.253Z,1.48
2023-03-03T00:57:04.944Z,1.58
2023-03-03T01:02:08.890Z,1.55
2023-03-03T01:07:13.328Z,1.58
2023-03-03T01:12:17.589Z,1.27
2023-03-03T01:17:22.168Z,1.35
2023-03-03T01:22:25.876Z,1.45
2023-03-03T01:27:30.892Z,1.55
2023-03-03T01:32:34.648Z,1.50
2023-03-03T01:37:40.515Z,1.60
2023-03-03T01:42:44.165Z,1.52
2023-03-03T01:48:05.637Z,1.60
2023-03-03T01:53:17.466Z,1.50
2023-03-03T01:58:25.037Z,1.70
2023-03-03T02:03:29.198Z,1.48
2023-03-03T02:08:42.930Z,1.58
2023-03-03T02:13:46.543Z,1.80
2023-03-03T02:18:50.810Z,1.52
2023-03-03T02:24:24.165Z,1.52
2023-03-03T02:29:28.326Z,1.70
2023-03-03T02:34:35.482Z,1.58
2023-03-03T02:39:40.494Z,1.40
2023-03-03T02:44:45.975Z,1.70
2023-03-03T02:49:49.956Z,1.75
2023-03-03T02:54:56.615Z,1.60
2023-03-03T03:00:01.552Z,1.60
2023-03-03T03:05:09.712Z,1.98
2023-03-03T03:10:16.841Z,1.50
2023-03-03T03:15:22.605Z,1.60
2023-03-03T03:20:27.793Z,1.45
2023-03-03T03:25:32.722Z,1.70
2023-03-03T03:30:37.392Z,1.58
2023-03-03T03:35:46.373Z,2.03
2023-03-03T03:40:53.361Z,1.58
2023-03-03T03:45:57.346Z,1.40
2023-03-03T03:51:03.939Z,1.45
2023-03-03T03:56:09.067Z,1.42
2023-03-03T04:01:13.475Z,1.30
2023-03-03T04:06:23.944Z,1.40
2023-03-03T04:11:29.205Z,1.63
2023-03-03T04:16:33.351Z,1.45
2023-03-03T04:21:37.235Z,1.83
2023-03-03T04:26:41.742Z,1.42
2023-03-03T04:31:47.764Z,1.92
2023-03-03T04:36:52.388Z,1.40
2023-03-03T04:41:56.395Z,1.45
2023-03-03T04:47:02.558Z,1.40
2023-03-03T04:52:08.114Z,1.50
2023-03-03T04:57:13.406Z,1.40
2023-03-03T05:02:18.089Z,1.30
2023-03-03T05:07:23.360Z,1.50
2023-03-03T05:12:28.121Z,1.60
2023-03-03T05:17:31.976Z,1.70
2023-03-03T05:22:35.866Z,1.40
2023-03-03T05:27:41.042Z,1.38
2023-03-03T05:32:45.078Z,1.40
2023-03-03T05:37:50.805Z,1.67
2023-03-03T05:42:54.819Z,1.60
2023-03-03T05:47:58.716Z,1.55
2023-03-03T05:53:03.373Z,1.15
2023-03-03T05:58:07.128Z,1.33
2023-03-03T06:03:11.997Z,1.65
2023-03-03T06:08:15.819Z,1.80
2023-03-03T06:13:20.724Z,1.70
2023-03-03T06:18:24.732Z,1.60
2023-03-03T06:23:28.817Z,1.67
2023-03-03T06:28:33.519Z,1.02
2023-03-03T06:33:39.028Z,1.38
2023-03-03T06:38:43.756Z,1.30
2023-03-03T06:43:47.552Z,1.50
2023-03-03T06:48:51.424Z,1.05
2023-03-03T06:54:05.550Z,1.60
2023-03-03T06:59:30.641Z,1.55
2023-03-03T07:04:35.152Z,1.40
2023-03-03T07:09:39.308Z,1.33
2023-03-03T07:14:47.121Z,1.42
2023-03-03T07:19:54.166Z,1.60
2023-03-03T07:25:06.135Z,1.30
2023-03-03T07:30:28.883Z,1.80
2023-03-03T07:35:45.700Z,4.93
2023-03-03T07:40:53.328Z,4.38
2023-03-03T07:46:05.335Z,3.00
2023-03-03T07:51:42.663Z,4.43
2023-03-03T07:56:47.616Z,2.15
2023-03-03T08:01:59.403Z,1.35
2023-03-03T08:07:04.939Z,1.40
2023-03-03T08:12:08.641Z,1.17
2023-03-03T08:17:37.247Z,1.33
2023-03-03T08:22:41.150Z,1.70
2023-03-03T08:27:45.145Z,1.55
2023-03-03T08:32:49.246Z,1.80
2023-03-03T08:37:54.339Z,1.73
2023-03-03T08:42:58.863Z,1.30
2023-03-03T08:48:05.518Z,1.42
2023-03-03T08:53:11.765Z,1.40
2023-03-03T08:58:20.381Z,1.38
2023-03-03T09:03:25.051Z,1.33
2023-03-03T09:08:29.012Z,1.45
2023-03-03T09:13:33.883Z,1.38
2023-03-03T09:18:39.590Z,1.20
2023-03-03T09:23:49.021Z,1.45
2023-03-03T09:33:59.951Z,1.40
2023-03-03T09:39:31.215Z,1.48
2023-03-03T09:44:34.956Z,1.25
2023-03-03T09:50:00.257Z,1.73
2023-03-03T09:55:12.517Z,1.58
2023-03-03T10:00:38.122Z,1.40
2023-03-03T10:05:58.979Z,1.40
2023-03-03T10:11:27.623Z,1.20
2023-03-03T10:16:50.896Z,1.13
2023-03-03T10:22:26.139Z,1.27
2023-03-03T10:27:40.560Z,1.50
2023-03-03T10:33:22.692Z,1.15
2023-03-03T10:38:34.653Z,1.05
2023-03-03T10:43:58.533Z,1.20
2023-03-03T10:49:18.750Z,1.38
2023-03-03T11:01:18.960Z,1.20
2023-03-03T11:06:48.108Z,1.23
2023-03-03T11:12:20.148Z,1.23
2023-03-03T11:17:56.917Z,1.40
2023-03-03T11:23:21.152Z,1.52
2023-03-03T11:28:50.355Z,1.05
2023-03-03T11:39:19.781Z,1.23
2023-03-03T11:44:36.897Z,1.48
2023-03-03T11:49:55.736Z,1.70
2023-03-03T11:55:19.156Z,1.50
2023-03-03T12:01:04.070Z,1.40
2023-03-03T12:06:32.928Z,1.50
2023-03-03T12:11:42.985Z,1.45
2023-03-03T12:16:58.333Z,1.60
2023-03-03T12:22:15.035Z,1.70
2023-03-03T12:27:49.730Z,2.00
2023-03-03T12:33:12.136Z,2.50
2023-03-03T12:38:22.001Z,2.95
2023-03-03T12:43:37.108Z,4.45
2023-03-03T12:48:49.095Z,4.15
2023-03-03T12:54:06.242Z,11.35
2023-03-03T12:59:27.534Z,5.65
2023-03-03T13:04:41.483Z,4.85
2023-03-03T13:10:20.380Z,7.45
2023-03-03T13:15:38.006Z,6.53
2023-03-03T13:21:00.626Z,9.45
2023-03-03T13:26:18.328Z,12.05
2023-03-03T13:31:25.364Z,7.18
2023-03-03T13:37:12.157Z,3.58
2023-03-03T13:42:44.839Z,3.53
2023-03-03T13:48:17.504Z,3.22
2023-03-03T13:53:49.002Z,4.45
2023-03-03T13:59:11.129Z,4.78
2023-03-03T14:04:40.657Z,4.05
2023-03-03T14:10:11.592Z,3.40
2023-03-03T14:15:26.169Z,4.43
2023-03-03T14:20:34.278Z,3.33
2023-03-03T14:26:13.268Z,3.67
2023-03-03T14:31:19.241Z,3.30
2023-03-03T14:36:37.404Z,2.42
2023-03-03T14:41:43.113Z,2.45
2023-03-03T14:46:47.033Z,2.25
2023-03-03T14:51:53.004Z,1.67
2023-03-03T14:57:08.120Z,2.08
2023-03-03T15:02:18.292Z,1.70
2023-03-03T15:07:23.412Z,1.50
2023-03-03T15:12:42.910Z,1.35
2023-03-03T15:18:05.681Z,1.23
2023-03-03T15:24:08.199Z,1.42
2023-03-03T15:29:19.370Z,1.30
2023-03-03T15:34:38.171Z,0.80
2023-03-03T15:40:21.858Z,1.25
2023-03-03T15:45:34.612Z,1.00
2023-03-03T15:50:45.752Z,1.02
2023-03-03T15:56:21.633Z,0.70
2023-03-03T16:01:40.265Z,0.60
2023-03-03T16:07:01.504Z,0.60
2023-03-03T16:12:27.237Z,0.80
2023-03-03T16:17:57.361Z,0.77
2023-03-03T16:23:30.197Z,0.68
2023-03-03T16:28:59.978Z,0.70
2023-03-03T16:34:18.883Z,0.47
2023-03-03T16:39:56.338Z,0.60
2023-03-03T16:45:27.567Z,0.70
2023-03-03T16:50:58.960Z,0.60
2023-03-03T16:56:50.658Z,0.63
2023-03-03T17:02:21.930Z,0.63
2023-03-03T17:07:38.464Z,0.50
2023-03-03T17:12:55.182Z,0.40
2023-03-03T17:18:29.342Z,0.40
2023-03-03T17:23:54.770Z,0.40
2023-03-03T17:29:44.357Z,0.70
2023-03-03T17:35:10.792Z,0.40
2023-03-03T17:40:54.107Z,0.40
2023-03-03T17:46:04.398Z,0.40
2023-03-03T17:51:22.834Z,0.50
2023-03-03T17:56:59.134Z,0.30
2023-03-03T18:02:39.949Z,0.75
2023-03-03T18:07:56.159Z,0.50
2023-03-03T18:13:25.684Z,0.55
2023-03-03T18:19:01.132Z,0.50
2023-03-03T18:24:26.717Z,0.40
2023-03-03T18:29:30.753Z,0.60
2023-03-03T18:34:40.951Z,0.60
2023-03-03T18:39:50.678Z,0.70
2023-03-03T18:44:55.342Z,0.60
2023-03-03T18:50:25.470Z,0.98
2023-03-03T18:55:29.500Z,0.65
2023-03-03T19:00:34.352Z,0.82
2023-03-03T19:05:51.330Z,0.63
2023-03-03T19:10:59.528Z,0.90
2023-03-03T19:16:08.070Z,0.80
2023-03-03T19:21:11.802Z,0.80
2023-03-03T19:26:31.093Z,1.02
2023-03-03T19:32:14.470Z,1.23
2023-03-03T19:37:40.098Z,1.10
2023-03-03T19:42:52.698Z,1.00
2023-03-03T19:48:32.908Z,0.88
2023-03-03T19:53:55.286Z,1.08
2023-03-03T19:59:19.447Z,1.33
2023-03-03T20:05:00.312Z,0.82
2023-03-03T20:10:43.289Z,1.10
2023-03-03T20:16:17.394Z,0.70
2023-03-03T20:21:28.375Z,1.10
2023-03-03T20:26:58.744Z,1.00
2023-03-03T20:32:14.644Z,1.00
2023-03-03T20:37:53.805Z,1.23
2023-03-03T20:43:22.446Z,1.00
2023-03-03T20:53:50.480Z,0.95
2023-03-03T20:59:04.109Z,1.02
2023-03-03T21:04:25.454Z,1.05
2023-03-03T21:09:42.371Z,1.10
2023-03-03T21:15:12.877Z,1.20
2023-03-03T21:20:26.477Z,0.95
2023-03-03T21:25:46.187Z,1.27
2023-03-03T21:31:05.066Z,1.13
2023-03-03T21:36:10.401Z,0.73
2023-03-03T21:41:18.181Z,1.30
2023-03-03T21:46:26.210Z,1.53
2023-03-03T21:51:30.056Z,1.77
2023-03-03T21:56:36.207Z,1.67
2023-03-03T22:01:39.981Z,1.45
2023-03-03T22:06:44.054Z,1.83
2023-03-03T22:11:48.145Z,1.40
2023-03-03T22:16:53.198Z,1.38
2023-03-03T22:21:57.422Z,1.55
2023-03-03T22:27:04.112Z,1.38
2023-03-03T22:32:08.023Z,1.48
2023-03-03T22:37:12.041Z,1.52
2023-03-03T22:42:16.044Z,1.52
2023-03-03T22:47:19.886Z,1.83
2023-03-03T22:52:26.991Z,1.60
2023-03-03T22:57:31.847Z,1.90
2023-03-03T23:02:37.219Z,1.80
2023-03-03T23:07:41.586Z,1.73
2023-03-03T23:12:46.400Z,1.60
2023-03-03T23:17:50.294Z,1.70
2023-03-03T23:22:55.440Z,1.88
2023-03-03T23:27:59.497Z,2.38
2023-03-03T23:33:05.410Z,1.73
2023-03-03T23:38:09.277Z,1.35
2023-03-03T23:43:13.825Z,1.70
2023-03-03T23:48:17.561Z,1.73
2023-03-03T23:53:23.387Z,1.20
2023-03-03T23:58:27.118Z,1.92
